sensor_id;sensor_type;location;lat;lon;timestamp;pressure;altitude;pressure_sealevel;temperature;humidity
59407;BME280;45208;32.616;-115.472;2022-09-12T00:01:14;101100.19;;;54.37;11.94
59407;BME280;45208;32.616;-115.472;2022-09-12T00:03:42;101098.59;;;55.61;10.85
59407;BME280;45208;32.616;-115.472;2022-09-12T00:06:12;101101.31;;;55.95;10.25
59407;BME280;45208;32.616;-115.472;2022-09-12T00:08:40;101104.66;;;57.27;10.47
59407;BME280;45208;32.616;-115.472;2022-09-12T00:11:07;101108.97;;;56.96;9.51
59407;BME280;45208;32.616;-115.472;2022-09-12T00:13:34;101102.16;;;57.31;9.22
59407;BME280;45208;32.616;-115.472;2022-09-12T00:16:00;101105.75;;;57.77;8.82
59407;BME280;45208;32.616;-115.472;2022-09-12T00:18:27;101090.81;;;57.28;10.32
59407;BME280;45208;32.616;-115.472;2022-09-12T00:20:53;101089.28;;;56.88;10.16
59407;BME280;45208;32.616;-115.472;2022-09-12T00:23:19;101092.97;;;57.50;10.19
59407;BME280;45208;32.616;-115.472;2022-09-12T00:25:46;101089.84;;;57.25;9.68
59407;BME280;45208;32.616;-115.472;2022-09-12T00:28:14;101099.16;;;56.55;9.93
59407;BME280;45208;32.616;-115.472;2022-09-12T00:30:45;101090.41;;;56.55;10.36
59407;BME280;45208;32.616;-115.472;2022-09-12T00:33:12;101094.34;;;57.03;9.84
59407;BME280;45208;32.616;-115.472;2022-09-12T00:35:42;101093.44;;;58.27;9.79
59407;BME280;45208;32.616;-115.472;2022-09-12T00:38:10;101092.41;;;58.32;8.05
59407;BME280;45208;32.616;-115.472;2022-09-12T00:40:36;101098.88;;;58.88;8.54
59407;BME280;45208;32.616;-115.472;2022-09-12T00:43:03;101101.66;;;58.53;9.40
59407;BME280;45208;32.616;-115.472;2022-09-12T00:45:29;101095.13;;;56.88;9.37
59407;BME280;45208;32.616;-115.472;2022-09-12T00:47:56;101093.59;;;55.69;10.12
59407;BME280;45208;32.616;-115.472;2022-09-12T00:50:23;101084.75;;;55.90;10.35
59407;BME280;45208;32.616;-115.472;2022-09-12T00:53:02;101092.81;;;56.13;9.75
59407;BME280;45208;32.616;-115.472;2022-09-12T00:55:36;101086.34;;;55.99;10.59
59407;BME280;45208;32.616;-115.472;2022-09-12T00:58:13;101086.63;;;55.23;11.09
59407;BME280;45208;32.616;-115.472;2022-09-12T01:00:41;101091.69;;;55.23;11.66
59407;BME280;45208;32.616;-115.472;2022-09-12T01:03:09;101085.81;;;55.15;10.30
59407;BME280;45208;32.616;-115.472;2022-09-12T01:05:37;101090.56;;;54.29;10.97
59407;BME280;45208;32.616;-115.472;2022-09-12T01:08:05;101099.25;;;54.08;11.43
59407;BME280;45208;32.616;-115.472;2022-09-12T01:10:33;101088.78;;;54.26;11.83
59407;BME280;45208;32.616;-115.472;2022-09-12T01:13:00;101092.09;;;53.83;12.11
59407;BME280;45208;32.616;-115.472;2022-09-12T01:15:28;101096.38;;;54.29;10.96
59407;BME280;45208;32.616;-115.472;2022-09-12T01:20:31;101090.53;;;53.82;12.10
59407;BME280;45208;32.616;-115.472;2022-09-12T01:31:10;101093.56;;;53.36;11.98
59407;BME280;45208;32.616;-115.472;2022-09-12T01:38:51;101099.81;;;53.67;11.98
59407;BME280;45208;32.616;-115.472;2022-09-12T01:46:46;101090.97;;;52.88;12.67
59407;BME280;45208;32.616;-115.472;2022-09-12T01:49:20;101090.78;;;52.67;12.82
59407;BME280;45208;32.616;-115.472;2022-09-12T01:51:59;101093.50;;;52.78;12.15
59407;BME280;45208;32.616;-115.472;2022-09-12T01:54:37;101087.94;;;52.10;13.40
59407;BME280;45208;32.616;-115.472;2022-09-12T01:57:08;101088.38;;;52.14;13.35
59407;BME280;45208;32.616;-115.472;2022-09-12T01:59:37;101091.06;;;52.12;12.98
59407;BME280;45208;32.616;-115.472;2022-09-12T02:02:10;101082.66;;;51.90;13.33
59407;BME280;45208;32.616;-115.472;2022-09-12T02:04:40;101079.41;;;51.75;13.41
59407;BME280;45208;32.616;-115.472;2022-09-12T02:09:36;101078.91;;;51.46;13.55
59407;BME280;45208;32.616;-115.472;2022-09-12T02:12:04;101079.69;;;51.71;13.57
59407;BME280;45208;32.616;-115.472;2022-09-12T02:14:33;101078.72;;;51.63;13.55
59407;BME280;45208;32.616;-115.472;2022-09-12T02:17:05;101082.22;;;51.07;13.04
59407;BME280;45208;32.616;-115.472;2022-09-12T02:19:33;101083.00;;;50.72;13.54
59407;BME280;45208;32.616;-115.472;2022-09-12T02:22:02;101081.31;;;50.88;13.72
59407;BME280;45208;32.616;-115.472;2022-09-12T02:24:35;101074.59;;;51.04;13.40
59407;BME280;45208;32.616;-115.472;2022-09-12T02:27:04;101074.94;;;51.49;13.73
59407;BME280;45208;32.616;-115.472;2022-09-12T02:29:31;101077.47;;;51.58;13.01
59407;BME280;45208;32.616;-115.472;2022-09-12T02:31:58;101084.47;;;51.44;13.52
59407;BME280;45208;32.616;-115.472;2022-09-12T02:37:04;101084.28;;;51.61;14.02
59407;BME280;45208;32.616;-115.472;2022-09-12T02:39:32;101077.47;;;51.58;14.96
59407;BME280;45208;32.616;-115.472;2022-09-12T02:41:59;101075.75;;;51.68;15.81
59407;BME280;45208;32.616;-115.472;2022-09-12T02:44:26;101082.06;;;51.73;14.96
59407;BME280;45208;32.616;-115.472;2022-09-12T02:46:54;101084.53;;;51.63;14.60
59407;BME280;45208;32.616;-115.472;2022-09-12T02:49:23;101086.75;;;51.51;13.75
59407;BME280;45208;32.616;-115.472;2022-09-12T02:51:49;101084.06;;;51.59;14.10
59407;BME280;45208;32.616;-115.472;2022-09-12T02:54:15;101099.00;;;51.63;14.15
59407;BME280;45208;32.616;-115.472;2022-09-12T02:56:43;101100.25;;;51.73;15.11
59407;BME280;45208;32.616;-115.472;2022-09-12T02:59:10;101108.16;;;51.73;15.79
59407;BME280;45208;32.616;-115.472;2022-09-12T03:09:17;101109.16;;;51.51;15.75
59407;BME280;45208;32.616;-115.472;2022-09-12T03:16:45;101112.59;;;51.49;14.84
59407;BME280;45208;32.616;-115.472;2022-09-12T03:19:51;101119.88;;;51.37;14.39
59407;BME280;45208;32.616;-115.472;2022-09-12T03:22:14;101117.75;;;51.32;14.18
59407;BME280;45208;32.616;-115.472;2022-09-12T03:25:06;101114.44;;;51.22;16.46
59407;BME280;45208;32.616;-115.472;2022-09-12T03:27:32;101118.59;;;51.27;16.74
59407;BME280;45208;32.616;-115.472;2022-09-12T03:30:00;101118.38;;;51.25;14.87
59407;BME280;45208;32.616;-115.472;2022-09-12T03:32:43;101126.63;;;51.15;14.23
59407;BME280;45208;32.616;-115.472;2022-09-12T03:35:10;101135.56;;;51.47;15.64
59407;BME280;45208;32.616;-115.472;2022-09-12T03:37:36;101136.47;;;51.61;14.46
59407;BME280;45208;32.616;-115.472;2022-09-12T03:40:03;101137.69;;;51.71;15.47
59407;BME280;45208;32.616;-115.472;2022-09-12T03:42:30;101141.03;;;50.49;15.20
59407;BME280;45208;32.616;-115.472;2022-09-12T03:44:56;101136.47;;;51.01;14.90
59407;BME280;45208;32.616;-115.472;2022-09-12T03:47:23;101139.13;;;51.29;16.56
59407;BME280;45208;32.616;-115.472;2022-09-12T03:49:49;101147.81;;;51.29;15.43
59407;BME280;45208;32.616;-115.472;2022-09-12T03:52:17;101150.25;;;51.55;14.69
59407;BME280;45208;32.616;-115.472;2022-09-12T03:54:43;101143.28;;;51.63;15.18
59407;BME280;45208;32.616;-115.472;2022-09-12T03:57:09;101148.75;;;51.73;14.67
59407;BME280;45208;32.616;-115.472;2022-09-12T03:59:36;101149.81;;;51.45;15.76
59407;BME280;45208;32.616;-115.472;2022-09-12T04:02:02;101149.53;;;51.13;14.98
59407;BME280;45208;32.616;-115.472;2022-09-12T04:04:29;101156.13;;;50.78;16.72
59407;BME280;45208;32.616;-115.472;2022-09-12T04:06:56;101153.59;;;50.58;16.84
59407;BME280;45208;32.616;-115.472;2022-09-12T04:09:22;101159.56;;;50.76;16.66
59407;BME280;45208;32.616;-115.472;2022-09-12T04:11:48;101157.81;;;50.57;17.06
59407;BME280;45208;32.616;-115.472;2022-09-12T04:14:14;101163.47;;;51.15;16.20
59407;BME280;45208;32.616;-115.472;2022-09-12T04:16:40;101160.81;;;50.81;17.22
59407;BME280;45208;32.616;-115.472;2022-09-12T04:19:08;101170.81;;;51.21;16.33
59407;BME280;45208;32.616;-115.472;2022-09-12T04:21:34;101162.66;;;51.20;16.55
59407;BME280;45208;32.616;-115.472;2022-09-12T04:24:01;101173.34;;;51.00;17.24
59407;BME280;45208;32.616;-115.472;2022-09-12T04:26:27;101168.34;;;50.95;16.74
59407;BME280;45208;32.616;-115.472;2022-09-12T04:28:54;101174.25;;;50.37;17.40
59407;BME280;45208;32.616;-115.472;2022-09-12T04:31:22;101170.44;;;49.96;17.78
59407;BME280;45208;32.616;-115.472;2022-09-12T04:33:53;101176.53;;;50.50;17.43
59407;BME280;45208;32.616;-115.472;2022-09-12T04:36:20;101172.84;;;49.69;18.16
59407;BME280;45208;32.616;-115.472;2022-09-12T04:38:48;101172.28;;;49.87;18.46
59407;BME280;45208;32.616;-115.472;2022-09-12T04:43:44;101177.94;;;50.79;17.71
59407;BME280;45208;32.616;-115.472;2022-09-12T04:46:14;101171.13;;;50.82;16.95
59407;BME280;45208;32.616;-115.472;2022-09-12T04:48:40;101174.81;;;50.77;16.99
59407;BME280;45208;32.616;-115.472;2022-09-12T04:51:14;101175.91;;;50.63;17.43
59407;BME280;45208;32.616;-115.472;2022-09-12T04:53:42;101176.72;;;50.69;17.41
59407;BME280;45208;32.616;-115.472;2022-09-12T04:56:09;101180.13;;;50.62;17.21
59407;BME280;45208;32.616;-115.472;2022-09-12T04:58:35;101180.97;;;50.57;17.35
59407;BME280;45208;32.616;-115.472;2022-09-12T05:01:06;101180.75;;;50.49;17.91
59407;BME280;45208;32.616;-115.472;2022-09-12T05:03:33;101184.72;;;50.46;18.14
59407;BME280;45208;32.616;-115.472;2022-09-12T05:06:02;101182.09;;;50.42;17.81
59407;BME280;45208;32.616;-115.472;2022-09-12T05:08:28;101179.44;;;50.44;18.20
59407;BME280;45208;32.616;-115.472;2022-09-12T05:10:54;101178.94;;;50.40;17.80
59407;BME280;45208;32.616;-115.472;2022-09-12T05:13:21;101182.38;;;50.39;17.82
59407;BME280;45208;32.616;-115.472;2022-09-12T05:15:54;101191.34;;;50.35;17.70
59407;BME280;45208;32.616;-115.472;2022-09-12T05:18:21;101186.88;;;50.34;17.64
59407;BME280;45208;32.616;-115.472;2022-09-12T05:20:47;101186.84;;;50.40;17.24
59407;BME280;45208;32.616;-115.472;2022-09-12T05:23:13;101189.50;;;50.32;17.75
59407;BME280;45208;32.616;-115.472;2022-09-12T05:25:46;101185.97;;;49.81;18.92
59407;BME280;45208;32.616;-115.472;2022-09-12T05:28:12;101189.13;;;49.72;18.63
59407;BME280;45208;32.616;-115.472;2022-09-12T05:30:39;101185.94;;;49.93;18.50
59407;BME280;45208;32.616;-115.472;2022-09-12T05:33:05;101183.81;;;50.10;17.78
59407;BME280;45208;32.616;-115.472;2022-09-12T05:35:31;101177.59;;;49.61;18.65
59407;BME280;45208;32.616;-115.472;2022-09-12T05:37:58;101182.34;;;49.30;18.72
59407;BME280;45208;32.616;-115.472;2022-09-12T05:40:24;101181.78;;;49.71;18.73
59407;BME280;45208;32.616;-115.472;2022-09-12T05:42:50;101183.13;;;50.51;17.52
59407;BME280;45208;32.616;-115.472;2022-09-12T05:45:16;101185.13;;;50.72;18.02
59407;BME280;45208;32.616;-115.472;2022-09-12T05:47:45;101180.28;;;50.86;17.15
59407;BME280;45208;32.616;-115.472;2022-09-12T05:50:11;101185.31;;;50.80;18.06
59407;BME280;45208;32.616;-115.472;2022-09-12T05:52:37;101185.81;;;50.26;20.42
59407;BME280;45208;32.616;-115.472;2022-09-12T05:55:03;101186.31;;;50.41;19.90
59407;BME280;45208;32.616;-115.472;2022-09-12T05:57:30;101178.56;;;50.03;19.24
59407;BME280;45208;32.616;-115.472;2022-09-12T05:59:56;101179.69;;;49.77;19.77
59407;BME280;45208;32.616;-115.472;2022-09-12T06:02:22;101185.88;;;50.15;19.34
59407;BME280;45208;32.616;-115.472;2022-09-12T06:04:49;101188.47;;;50.35;18.47
59407;BME280;45208;32.616;-115.472;2022-09-12T06:07:15;101188.50;;;50.18;19.17
59407;BME280;45208;32.616;-115.472;2022-09-12T06:09:41;101186.50;;;49.18;18.71
59407;BME280;45208;32.616;-115.472;2022-09-12T06:12:07;101181.69;;;48.05;20.06
59407;BME280;45208;32.616;-115.472;2022-09-12T06:14:33;101180.66;;;48.73;19.70
59407;BME280;45208;32.616;-115.472;2022-09-12T06:17:00;101178.63;;;49.19;18.31
59407;BME280;45208;32.616;-115.472;2022-09-12T06:19:26;101178.88;;;48.98;18.50
59407;BME280;45208;32.616;-115.472;2022-09-12T06:21:53;101186.53;;;49.29;18.59
59407;BME280;45208;32.616;-115.472;2022-09-12T06:24:20;101187.81;;;49.79;18.12
59407;BME280;45208;32.616;-115.472;2022-09-12T06:26:46;101185.66;;;49.90;17.73
59407;BME280;45208;32.616;-115.472;2022-09-12T06:29:13;101195.19;;;49.74;17.54
59407;BME280;45208;32.616;-115.472;2022-09-12T06:31:40;101187.03;;;49.78;18.07
59407;BME280;45208;32.616;-115.472;2022-09-12T06:34:07;101193.84;;;49.81;17.71
59407;BME280;45208;32.616;-115.472;2022-09-12T06:36:38;101186.53;;;49.74;18.17
59407;BME280;45208;32.616;-115.472;2022-09-12T06:39:06;101183.63;;;49.74;17.90
59407;BME280;45208;32.616;-115.472;2022-09-12T06:41:33;101187.81;;;49.73;18.15
59407;BME280;45208;32.616;-115.472;2022-09-12T06:44:00;101185.44;;;49.55;18.09
59407;BME280;45208;32.616;-115.472;2022-09-12T06:46:26;101182.34;;;49.42;18.25
59407;BME280;45208;32.616;-115.472;2022-09-12T06:48:56;101180.47;;;49.50;18.92
59407;BME280;45208;32.616;-115.472;2022-09-12T06:51:24;101176.03;;;49.49;18.37
59407;BME280;45208;32.616;-115.472;2022-09-12T06:53:53;101172.34;;;49.43;18.64
59407;BME280;45208;32.616;-115.472;2022-09-12T06:56:20;101189.94;;;49.50;18.25
59407;BME280;45208;32.616;-115.472;2022-09-12T06:58:47;101183.66;;;49.41;18.47
59407;BME280;45208;32.616;-115.472;2022-09-12T07:03:40;101182.56;;;49.27;18.80
59407;BME280;45208;32.616;-115.472;2022-09-12T07:06:10;101180.22;;;49.31;18.64
59407;BME280;45208;32.616;-115.472;2022-09-12T07:08:37;101173.16;;;49.32;18.65
59407;BME280;45208;32.616;-115.472;2022-09-12T07:11:11;101176.00;;;49.26;19.15
59407;BME280;45208;32.616;-115.472;2022-09-12T07:13:41;101166.31;;;49.29;18.90
59407;BME280;45208;32.616;-115.472;2022-09-12T07:16:08;101168.91;;;49.16;19.42
59407;BME280;45208;32.616;-115.472;2022-09-12T07:18:35;101165.78;;;49.25;19.30
59407;BME280;45208;32.616;-115.472;2022-09-12T07:21:03;101171.56;;;49.42;19.93
59407;BME280;45208;32.616;-115.472;2022-09-12T07:23:30;101168.91;;;49.50;18.67
59407;BME280;45208;32.616;-115.472;2022-09-12T07:25:57;101169.19;;;49.52;19.12
59407;BME280;45208;32.616;-115.472;2022-09-12T07:28:28;101156.34;;;49.42;18.69
59407;BME280;45208;32.616;-115.472;2022-09-12T07:30:55;101174.19;;;49.40;18.85
59407;BME280;45208;32.616;-115.472;2022-09-12T07:33:22;101175.25;;;49.43;18.79
59407;BME280;45208;32.616;-115.472;2022-09-12T07:35:48;101167.63;;;49.40;19.06
59407;BME280;45208;32.616;-115.472;2022-09-12T07:38:15;101169.19;;;49.46;18.68
59407;BME280;45208;32.616;-115.472;2022-09-12T07:40:41;101162.09;;;49.47;19.27
59407;BME280;45208;32.616;-115.472;2022-09-12T07:43:08;101158.16;;;49.56;19.82
59407;BME280;45208;32.616;-115.472;2022-09-12T07:45:35;101158.41;;;49.52;19.19
59407;BME280;45208;32.616;-115.472;2022-09-12T07:48:01;101158.16;;;49.67;18.95
59407;BME280;45208;32.616;-115.472;2022-09-12T07:50:28;101156.28;;;49.64;18.72
59407;BME280;45208;32.616;-115.472;2022-09-12T07:52:54;101158.41;;;49.69;19.00
59407;BME280;45208;32.616;-115.472;2022-09-12T07:55:20;101148.69;;;49.55;18.66
59407;BME280;45208;32.616;-115.472;2022-09-12T07:57:50;101149.25;;;49.20;19.39
59407;BME280;45208;32.616;-115.472;2022-09-12T08:00:17;101142.41;;;49.23;19.29
59407;BME280;45208;32.616;-115.472;2022-09-12T08:02:43;101143.47;;;49.43;18.91
59407;BME280;45208;32.616;-115.472;2022-09-12T08:05:10;101149.25;;;49.43;18.65
59407;BME280;45208;32.616;-115.472;2022-09-12T08:07:36;101148.69;;;49.16;18.48
59407;BME280;45208;32.616;-115.472;2022-09-12T08:10:03;101148.47;;;49.31;18.93
59407;BME280;45208;32.616;-115.472;2022-09-12T08:12:31;101142.97;;;49.39;17.97
59407;BME280;45208;32.616;-115.472;2022-09-12T08:14:59;101145.56;;;49.48;18.10
59407;BME280;45208;32.616;-115.472;2022-09-12T08:17:25;101139.50;;;49.51;17.95
59407;BME280;45208;32.616;-115.472;2022-09-12T08:19:51;101139.78;;;49.48;17.96
59407;BME280;45208;32.616;-115.472;2022-09-12T08:22:18;101142.13;;;49.49;18.28
59407;BME280;45208;32.616;-115.472;2022-09-12T08:24:47;101141.59;;;49.51;18.59
59407;BME280;45208;32.616;-115.472;2022-09-12T08:27:13;101130.31;;;49.36;17.95
59407;BME280;45208;32.616;-115.472;2022-09-12T08:29:40;101139.25;;;49.16;18.25
59407;BME280;45208;32.616;-115.472;2022-09-12T08:32:06;101133.50;;;49.33;18.12
59407;BME280;45208;32.616;-115.472;2022-09-12T08:34:32;101130.34;;;49.42;17.38
59407;BME280;45208;32.616;-115.472;2022-09-12T08:36:59;101131.34;;;49.50;18.20
59407;BME280;45208;32.616;-115.472;2022-09-12T08:39:25;101122.97;;;49.18;18.12
59407;BME280;45208;32.616;-115.472;2022-09-12T08:42:00;101133.75;;;49.23;18.10
59407;BME280;45208;32.616;-115.472;2022-09-12T08:52:13;101108.00;;;49.25;18.50
59407;BME280;45208;32.616;-115.472;2022-09-12T08:54:41;101110.38;;;49.10;17.68
59407;BME280;45208;32.616;-115.472;2022-09-12T08:57:09;101102.22;;;48.92;17.98
59407;BME280;45208;32.616;-115.472;2022-09-12T08:59:43;101108.53;;;48.85;17.90
59407;BME280;45208;32.616;-115.472;2022-09-12T09:02:27;101108.78;;;48.87;18.35
59407;BME280;45208;32.616;-115.472;2022-09-12T09:13:04;101113.00;;;48.91;18.44
59407;BME280;45208;32.616;-115.472;2022-09-12T09:15:38;101115.34;;;48.70;18.85
59407;BME280;45208;32.616;-115.472;2022-09-12T09:23:12;101119.00;;;48.82;18.39
59407;BME280;45208;32.616;-115.472;2022-09-12T09:28:15;101122.97;;;49.01;19.19
59407;BME280;45208;32.616;-115.472;2022-09-12T09:30:44;101127.19;;;49.00;18.09
59407;BME280;45208;32.616;-115.472;2022-09-12T09:33:20;101128.50;;;48.99;18.69
59407;BME280;45208;32.616;-115.472;2022-09-12T09:36:33;101124.28;;;48.89;18.36
59407;BME280;45208;32.616;-115.472;2022-09-12T09:38:45;101116.94;;;48.88;18.40
59407;BME280;45208;32.616;-115.472;2022-09-12T09:41:16;101128.41;;;48.49;19.10
59407;BME280;45208;32.616;-115.472;2022-09-12T09:43:45;101114.72;;;48.38;19.17
59407;BME280;45208;32.616;-115.472;2022-09-12T09:46:11;101115.75;;;48.35;19.28
59407;BME280;45208;32.616;-115.472;2022-09-12T09:48:45;101110.03;;;48.58;18.71
59407;BME280;45208;32.616;-115.472;2022-09-12T09:51:14;101123.47;;;48.83;18.64
59407;BME280;45208;32.616;-115.472;2022-09-12T09:53:46;101127.97;;;48.95;18.88
59407;BME280;45208;32.616;-115.472;2022-09-12T09:56:26;101121.38;;;48.84;18.38
59407;BME280;45208;32.616;-115.472;2022-09-12T09:58:53;101119.84;;;48.94;18.93
59407;BME280;45208;32.616;-115.472;2022-09-12T10:01:19;101115.63;;;48.95;18.88
59407;BME280;45208;32.616;-115.472;2022-09-12T10:03:49;101113.25;;;48.93;19.21
59407;BME280;45208;32.616;-115.472;2022-09-12T10:06:21;101115.63;;;48.95;19.22
59407;BME280;45208;32.616;-115.472;2022-09-12T10:08:48;101106.69;;;48.93;19.05
59407;BME280;45208;32.616;-115.472;2022-09-12T10:13:50;101110.38;;;48.88;19.13
59407;BME280;45208;32.616;-115.472;2022-09-12T10:16:20;101100.13;;;48.76;19.28
59407;BME280;45208;32.616;-115.472;2022-09-12T10:18:50;101102.50;;;48.94;19.22
59407;BME280;45208;32.616;-115.472;2022-09-12T10:23:43;101099.84;;;48.73;19.05
59407;BME280;45208;32.616;-115.472;2022-09-12T10:26:14;101109.56;;;48.82;18.67
59407;BME280;45208;32.616;-115.472;2022-09-12T10:28:45;101104.06;;;48.72;19.58
59407;BME280;45208;32.616;-115.472;2022-09-12T10:31:13;101104.59;;;48.88;19.66
59407;BME280;45208;32.616;-115.472;2022-09-12T10:33:43;101105.91;;;48.92;19.13
59407;BME280;45208;32.616;-115.472;2022-09-12T10:36:12;101113.00;;;48.86;19.26
59407;BME280;45208;32.616;-115.472;2022-09-12T10:38:39;101107.22;;;48.86;19.66
59407;BME280;45208;32.616;-115.472;2022-09-12T10:41:14;101105.91;;;48.70;19.72
59407;BME280;45208;32.616;-115.472;2022-09-12T10:43:40;101097.22;;;48.76;19.79
59407;BME280;45208;32.616;-115.472;2022-09-12T10:48:43;101113.25;;;48.88;19.62
59407;BME280;45208;32.616;-115.472;2022-09-12T10:53:52;101123.72;;;48.74;19.38
59407;BME280;45208;32.616;-115.472;2022-09-12T10:56:28;101116.63;;;48.58;19.73
59407;BME280;45208;32.616;-115.472;2022-09-12T11:04:08;101123.47;;;48.66;19.95
59407;BME280;45208;32.616;-115.472;2022-09-12T11:06:42;101126.63;;;48.68;19.85
59407;BME280;45208;32.616;-115.472;2022-09-12T11:11:52;101131.31;;;48.60;20.49
59407;BME280;45208;32.616;-115.472;2022-09-12T11:19:25;101134.47;;;48.62;20.30
59407;BME280;45208;32.616;-115.472;2022-09-12T11:24:57;101137.53;;;48.42;20.33
59407;BME280;45208;32.616;-115.472;2022-09-12T11:43:23;101155.09;;;48.33;21.01
59407;BME280;45208;32.616;-115.472;2022-09-12T11:45:54;101157.41;;;48.29;21.00
59407;BME280;45208;32.616;-115.472;2022-09-12T11:48:30;101151.47;;;48.49;20.09
59407;BME280;45208;32.616;-115.472;2022-09-12T11:50:59;101163.53;;;48.53;20.25
59407;BME280;45208;32.616;-115.472;2022-09-12T11:53:29;101163.75;;;48.33;20.88
59407;BME280;45208;32.616;-115.472;2022-09-12T11:56:07;101167.47;;;48.50;20.40
59407;BME280;45208;32.616;-115.472;2022-09-12T11:58:37;101167.00;;;48.63;20.29
59407;BME280;45208;32.616;-115.472;2022-09-12T12:01:25;101167.03;;;48.68;19.95
59407;BME280;45208;32.616;-115.472;2022-09-12T12:03:52;101168.59;;;48.69;19.92
59407;BME280;45208;32.616;-115.472;2022-09-12T12:06:20;101168.00;;;48.54;20.43
59407;BME280;45208;32.616;-115.472;2022-09-12T12:08:50;101180.50;;;48.29;20.90
59407;BME280;45208;32.616;-115.472;2022-09-12T12:13:53;101183.63;;;48.25;20.94
59407;BME280;45208;32.616;-115.472;2022-09-12T12:16:26;101185.31;;;48.54;20.37
59407;BME280;45208;32.616;-115.472;2022-09-12T12:18:57;101195.28;;;48.53;20.56
59407;BME280;45208;32.616;-115.472;2022-09-12T12:26:39;101197.41;;;48.04;20.02
59407;BME280;45208;32.616;-115.472;2022-09-12T12:34:30;101194.78;;;48.12;19.87
59407;BME280;45208;32.616;-115.472;2022-09-12T12:36:57;101201.19;;;48.27;20.14
59407;BME280;45208;32.616;-115.472;2022-09-12T12:41:57;101197.47;;;48.21;20.33
59407;BME280;45208;32.616;-115.472;2022-09-12T12:50:00;101205.19;;;48.47;19.75
59407;BME280;45208;32.616;-115.472;2022-09-12T12:52:28;101213.16;;;47.72;20.66
59407;BME280;45208;32.616;-115.472;2022-09-12T12:54:56;101219.56;;;47.87;20.21
59407;BME280;45208;32.616;-115.472;2022-09-12T12:57:44;101226.03;;;48.13;20.10
59407;BME280;45208;32.616;-115.472;2022-09-12T13:05:47;101229.72;;;48.20;20.06
59407;BME280;45208;32.616;-115.472;2022-09-12T13:10:47;101235.34;;;48.40;20.06
59407;BME280;45208;32.616;-115.472;2022-09-12T13:13:19;101228.22;;;48.30;20.03
59407;BME280;45208;32.616;-115.472;2022-09-12T13:15:47;101232.22;;;48.43;20.00
59407;BME280;45208;32.616;-115.472;2022-09-12T13:20:51;101238.88;;;47.49;21.07
59407;BME280;45208;32.616;-115.472;2022-09-12T13:23:28;101248.66;;;47.58;21.19
59407;BME280;45208;32.616;-115.472;2022-09-12T13:25:57;101249.31;;;47.73;20.56
59407;BME280;45208;32.616;-115.472;2022-09-12T13:28:23;101256.81;;;47.33;21.05
59407;BME280;45208;32.616;-115.472;2022-09-12T13:33:45;101261.09;;;47.43;21.35
59407;BME280;45208;32.616;-115.472;2022-09-12T13:36:19;101268.44;;;47.76;20.91
59407;BME280;45208;32.616;-115.472;2022-09-12T13:44:12;101275.78;;;48.08;21.02
59407;BME280;45208;32.616;-115.472;2022-09-12T13:46:41;101273.38;;;48.44;20.70
59407;BME280;45208;32.616;-115.472;2022-09-12T13:49:16;101275.78;;;48.08;20.46
59407;BME280;45208;32.616;-115.472;2022-09-12T13:51:44;101272.75;;;47.86;21.70
59407;BME280;45208;32.616;-115.472;2022-09-12T13:54:14;101270.16;;;47.94;21.38
59407;BME280;45208;32.616;-115.472;2022-09-12T13:56:46;101278.13;;;48.04;20.84
59407;BME280;45208;32.616;-115.472;2022-09-12T13:59:13;101282.53;;;48.00;21.57
59407;BME280;45208;32.616;-115.472;2022-09-12T14:01:40;101278.75;;;48.20;21.30
59407;BME280;45208;32.616;-115.472;2022-09-12T14:06:58;101288.84;;;48.47;20.80
59407;BME280;45208;32.616;-115.472;2022-09-12T14:09:26;101280.19;;;48.47;20.79
59407;BME280;45208;32.616;-115.472;2022-09-12T14:11:54;101291.31;;;48.17;21.05
59407;BME280;45208;32.616;-115.472;2022-09-12T14:16:47;101300.50;;;48.21;21.27
59407;BME280;45208;32.616;-115.472;2022-09-12T14:19:14;101292.16;;;48.23;21.31
59407;BME280;45208;32.616;-115.472;2022-09-12T14:21:44;101298.19;;;48.67;20.53
59407;BME280;45208;32.616;-115.472;2022-09-12T14:24:10;101299.31;;;48.87;20.62
59407;BME280;45208;32.616;-115.472;2022-09-12T14:26:37;101293.88;;;49.11;19.85
59407;BME280;45208;32.616;-115.472;2022-09-12T14:29:05;101298.66;;;48.60;20.55
59407;BME280;45208;32.616;-115.472;2022-09-12T14:31:35;101303.28;;;49.00;20.58
59407;BME280;45208;32.616;-115.472;2022-09-12T14:34:12;101298.59;;;48.49;20.86
59407;BME280;45208;32.616;-115.472;2022-09-12T14:36:43;101295.00;;;49.42;19.73
59407;BME280;45208;32.616;-115.472;2022-09-12T14:39:44;101304.50;;;49.93;19.75
59407;BME280;45208;32.616;-115.472;2022-09-12T14:42:10;101296.06;;;49.50;19.91
59407;BME280;45208;32.616;-115.472;2022-09-12T14:44:38;101301.53;;;49.25;19.64
59407;BME280;45208;32.616;-115.472;2022-09-12T14:47:16;101299.69;;;49.28;20.01
59407;BME280;45208;32.616;-115.472;2022-09-12T14:49:44;101305.38;;;48.46;21.12
59407;BME280;45208;32.616;-115.472;2022-09-12T14:52:21;101303.06;;;49.04;20.41
59407;BME280;45208;32.616;-115.472;2022-09-12T14:55:01;101294.69;;;49.28;19.84
59407;BME280;45208;32.616;-115.472;2022-09-12T15:02:38;101298.09;;;48.56;20.14
59407;BME280;45208;32.616;-115.472;2022-09-12T15:07:36;101293.44;;;48.64;19.85
59407;BME280;45208;32.616;-115.472;2022-09-12T15:10:05;101294.22;;;49.47;18.64
59407;BME280;45208;32.616;-115.472;2022-09-12T15:12:31;101294.50;;;49.99;18.60